»·PEaware :: DAL494 KJFK-KEWR

DAL494 :: KJFK-KEWR

FLIGHT INFORMATION

Flight Status: Arrived
Operator:
Delta Air Lines
More flights by this operator :: More flights under this callsign
Pilot: Tamer M. (30101)
Aircraft: BOEING 737-700
(B737)
More flights by this aircraft type
Origin: KJFK Kennedy Intl
United States
Destination: KEWR Newark Intl
United States
More flights between these airports :: More routes between these airports
Route: JFK5 V16 DIXIE V276 RBV V249 SBJ
File this flight plan on PilotEdge
Remarks:
Altitude:
(Current/Filed)
6,000ft
Speed:
(Current/Filed)
266kts
Departed: 01-Dec-22 05:28 AM
Arrived: 01-Dec-22 06:20 AM
Distance/Time
Traveled:
18nm/0:52
Distance/Time
To Go:
Arrived

Flight Plot

Page will automatically refresh every two minutes.

Flight plan parsing failed; only flown route is shown


Map Options




Map Legend


Flown Route
Filed Route
Departure Airport
Arrival Airport
Navaid (VOR, NDB)
Fix

Horizontal Profiles

Position Reports

Time Latitude Longitude Heading Altitude Ground
Speed
01-Dec-22 04:50 40.642236 -73.792625 151 19ft 0kts
01-Dec-22 04:51 40.642236 -73.792625 151 19ft 0kts
01-Dec-22 04:52 40.642236 -73.792625 151 19ft 0kts
01-Dec-22 04:53 40.642236 -73.792625 151 19ft 0kts
01-Dec-22 04:54 40.642236 -73.792625 151 19ft 0kts
01-Dec-22 04:55 40.642236 -73.792625 151 19ft 0kts
01-Dec-22 04:56 40.642236 -73.792625 151 19ft 0kts
01-Dec-22 04:57 40.642236 -73.792625 151 19ft 0kts
01-Dec-22 04:58 40.642236 -73.792625 151 19ft 0kts
01-Dec-22 04:59 40.642236 -73.792625 151 19ft 0kts
01-Dec-22 05:00 40.642236 -73.792625 151 19ft 0kts
01-Dec-22 05:01 40.642236 -73.792625 151 19ft 0kts
01-Dec-22 05:02 40.642236 -73.792625 151 19ft 0kts
01-Dec-22 05:03 40.642236 -73.792625 151 19ft 0kts
01-Dec-22 05:03 40.642236 -73.792625 151 19ft 0kts
01-Dec-22 05:05 40.642236 -73.792625 151 19ft 0kts
01-Dec-22 05:06 40.642236 -73.792625 151 19ft 0kts
01-Dec-22 05:07 40.642236 -73.792625 151 19ft 0kts
01-Dec-22 05:08 40.642236 -73.792625 151 19ft 0kts
01-Dec-22 05:09 40.642236 -73.792625 151 19ft 0kts
01-Dec-22 05:09 40.642236 -73.792625 151 19ft 0kts
01-Dec-22 05:10 40.642236 -73.792625 151 19ft 0kts
01-Dec-22 05:12 40.642236 -73.792625 151 19ft 0kts
01-Dec-22 05:13 40.642236 -73.792625 151 19ft 0kts
01-Dec-22 05:14 40.642236 -73.792625 151 19ft 0kts
01-Dec-22 05:14 40.642399 -73.792743 151 21ft 2kts
01-Dec-22 05:15 40.642896 -73.792827 239 19ft 0kts
01-Dec-22 05:16 40.642897 -73.792825 239 19ft 0kts
01-Dec-22 05:17 40.642897 -73.792825 239 19ft 0kts
01-Dec-22 05:19 40.642897 -73.792825 239 19ft 0kts
01-Dec-22 05:19 40.642660 -73.793324 234 20ft 5kts
01-Dec-22 05:20 40.641693 -73.796348 260 22ft 11kts
01-Dec-22 05:21 40.643263 -73.799468 305 20ft 9kts
01-Dec-22 05:22 40.644723 -73.802707 300 19ft 13kts
01-Dec-22 05:23 40.646969 -73.807641 300 19ft 15kts
01-Dec-22 05:24 40.649146 -73.812424 300 19ft 17kts
01-Dec-22 05:25 40.649910 -73.815384 201 19ft 8kts
01-Dec-22 05:26 40.649241 -73.815840 210 20ft 5kts
01-Dec-22 05:27 40.642703 -73.804201 120 25ft 142kts
01-Dec-22 05:28 40.609558 -73.762949 147 2637ft 209kts
01-Dec-22 05:29 40.556513 -73.718038 147 4957ft 219kts
01-Dec-22 05:30 40.505516 -73.675787 159 5004ft 214kts
01-Dec-22 05:31 40.448494 -73.700351 210 5018ft 237kts
01-Dec-22 05:32 40.416747 -73.773967 247 5006ft 236kts
01-Dec-22 05:33 40.390276 -73.856409 247 4998ft 247kts
01-Dec-22 05:34 40.362121 -73.937341 238 5068ft 241kts
01-Dec-22 05:35 40.317679 -74.004481 208 6006ft 253kts
01-Dec-22 05:36 40.256155 -74.048220 209 6004ft 249kts
01-Dec-22 05:37 40.195565 -74.093117 209 6010ft 250kts
01-Dec-22 05:38 40.134861 -74.138182 209 6012ft 251kts
01-Dec-22 05:39 40.113550 -74.211367 306 5740ft 255kts
01-Dec-22 05:40 40.176060 -74.242751 347 4755ft 240kts
01-Dec-22 05:41 40.237903 -74.260638 347 3732ft 209kts
01-Dec-22 05:42 40.292324 -74.276357 347 3024ft 198kts
01-Dec-22 05:43 40.346160 -74.291923 347 3005ft 198kts
01-Dec-22 05:44 40.400468 -74.303471 356 3010ft 198kts
01-Dec-22 05:45 40.455431 -74.301349 6 3010ft 198kts
01-Dec-22 05:46 40.508110 -74.282113 25 3011ft 198kts
01-Dec-22 05:47 40.557991 -74.250343 25 2606ft 198kts
01-Dec-22 05:48 40.604772 -74.220572 25 1648ft 186kts
01-Dec-22 05:49 40.645240 -74.194825 25 801ft 134kts
01-Dec-22 05:50 40.678683 -74.173549 25 199ft 142kts
01-Dec-22 05:51 40.708129 -74.139673 47 2385ft 186kts
01-Dec-22 05:52 40.751756 -74.090673 6 2488ft 213kts
01-Dec-22 05:53 40.798771 -74.125191 275 3006ft 214kts
01-Dec-22 05:54 40.787994 -74.201795 257 2997ft 206kts
01-Dec-22 05:55 40.763521 -74.267188 208 3025ft 209kts
01-Dec-22 05:56 40.711310 -74.303260 207 3003ft 211kts
01-Dec-22 05:57 40.660030 -74.338372 207 3017ft 208kts
01-Dec-22 05:58 40.608132 -74.373921 207 3011ft 210kts
01-Dec-22 05:59 40.555520 -74.372574 157 3028ft 188kts
01-Dec-22 06:00 40.511754 -74.338763 105 3012ft 186kts
01-Dec-22 06:01 40.532545 -74.277145 57 2317ft 185kts
01-Dec-22 06:02 40.574978 -74.239504 25 2006ft 185kts
01-Dec-22 06:03 40.621653 -74.209831 25 1283ft 178kts
01-Dec-22 06:04 40.658013 -74.186699 25 535ft 131kts
01-Dec-22 06:05 40.691670 -74.164808 40 1275ft 137kts
01-Dec-22 06:06 40.725053 -74.117441 47 2493ft 208kts
01-Dec-22 06:07 40.775048 -74.118186 303 3006ft 207kts
01-Dec-22 06:08 40.770984 -74.193440 257 3037ft 222kts
01-Dec-22 06:09 40.747171 -74.268858 210 3019ft 229kts
01-Dec-22 06:10 40.690943 -74.308109 207 3001ft 228kts
01-Dec-22 06:11 40.634632 -74.346658 207 3013ft 227kts
01-Dec-22 06:12 40.578031 -74.384783 207 3005ft 227kts
01-Dec-22 06:13 40.532762 -74.355549 108 3016ft 209kts
01-Dec-22 06:14 40.532473 -74.288246 58 2727ft 194kts
01-Dec-22 06:15 40.570571 -74.242273 25 2047ft 192kts
01-Dec-22 06:16 40.617711 -74.212338 25 1366ft 180kts
01-Dec-22 06:17 40.654847 -74.188714 25 594ft 133kts
01-Dec-22 06:18 40.687512 -74.167936 25 17ft 101kts
01-Dec-22 06:19 40.696056 -74.165182 308 18ft 15kts
01-Dec-22 06:20 40.696779 -74.167109 287 19ft 0kts
01-Dec-22 06:21 40.696400 -74.169188 252 19ft 11kts
01-Dec-22 06:22 40.697834 -74.173084 221 21ft 12kts
01-Dec-22 06:23 40.697456 -74.174472 309 21ft 0kts
01-Dec-22 06:24 40.697456 -74.174472 309 21ft 0kts
01-Dec-22 06:25 40.697456 -74.174472 309 21ft 0kts

Navigation Log

Ident Type
Flight plan parsing failed, navigation log unavailable